Estación Meteorológica Peña el Pijo (Robertgarden) [ 11/20/17 01:25:12 CET ]

Fecha Hora Presion(HPa) Temp (°C) Humedad % Rocio (°C) Viento ( m/s) Direccion Lluvia 1Hora(mm) Lluvia 24H(mm) LLuvia Total(mm)
2017-Nov-11 01:01:49 1016.500 2.4 75 -1.6         1468.01
2017-Nov-11 02:01:52 1016.100 2.9 77 -0.7         1468.01
2017-Nov-11 03:01:55 1016.000 2.8 78 -0.6         1468.01
2017-Nov-11 04:02:01 1015.500 2.8 79 -0.5         1468.01
2017-Nov-11 05:02:14 1015.500 2.2 80 -0.9         1468.01
2017-Nov-11 06:02:17 1015.700 2.6 81 -0.3         1468.01
2017-Nov-11 07:01:38 1015.200 2.2 82 -0.6         1468.01
2017-Nov-11 08:01:32 1015.500 2.5 83 -0.1         1468.01
2017-Nov-11 09:01:35 1015.600 4.1 84 1.3         1468.01
2017-Nov-11 10:01:39 1015.500 11.8 70 6.7         1468.01
2017-Nov-11 11:01:27 1015.100 16.4 45 4.4         1468.01
2017-Nov-11 12:01:25 1015.200 14.9 42 2.1         1468.01
2017-Nov-11 13:01:35 1014.600 16.4 40 2.8 3.0 SSE     1468.01
2017-Nov-11 14:01:16 1014.200 18.5 36 3.4         1468.01
2017-Nov-11 15:01:39 1013.800 17.9 37 2.9         1468.01
2017-Nov-11 16:01:29 1013.700 17.3 39 3.2 1.0 NW     1468.01
2017-Nov-11 17:01:29 1014.100 15.3 42 2.4         1468.01
2017-Nov-11 18:31:52 1014.400 10.4 53 1.2         1468.01
2017-Nov-11 19:01:55 1014.700 9.2 55 0.6         1468.01
2017-Nov-11 20:01:41 1015.000 7.6 61 0.6         1468.01
2017-Nov-11 21:01:50 1014.900 6.2 66 0.3         1468.01
2017-Nov-11 22:01:41 1015.100 5.9 69 0.7         1468.01
2017-Nov-11 23:01:48 1014.700 5.3 71 0.5         1468.01

Temperatura Máxima:18°    Temperatura Mínima:
Presión Máxima:1016.500 Hpa    Presión Mínima:1013.700 Hpa


Volver